createdAt,value
2023-05-09T00:01:36.090Z,66.09
2023-05-09T00:04:04.703Z,66.05
2023-05-09T00:06:33.650Z,65.95
2023-05-09T00:09:04.317Z,66.18
2023-05-09T00:11:32.666Z,66.04
2023-05-09T00:14:01.032Z,66.13
2023-05-09T00:16:29.584Z,65.85
2023-05-09T00:18:58.050Z,66.05
2023-05-09T00:21:33.045Z,65.81
2023-05-09T00:24:01.405Z,65.88
2023-05-09T00:26:31.118Z,65.76
2023-05-09T00:28:59.614Z,65.83
2023-05-09T00:31:28.857Z,65.75
2023-05-09T00:33:57.226Z,65.25
2023-05-09T00:36:25.960Z,65.32
2023-05-09T00:38:54.328Z,65.58
2023-05-09T00:41:22.638Z,65.36
2023-05-09T00:43:54.328Z,65.29
2023-05-09T00:46:22.931Z,65.14
2023-05-09T00:48:53.383Z,65.34
2023-05-09T00:51:22.976Z,65.15
2023-05-09T00:53:53.221Z,65.26
2023-05-09T00:56:21.733Z,65.19
2023-05-09T00:58:51.514Z,65.39
2023-05-09T01:01:21.249Z,65.53
2023-05-09T01:03:51.814Z,65.19
2023-05-09T01:06:28.438Z,64.83
2023-05-09T01:09:03.884Z,65.11
2023-05-09T01:11:37.740Z,64.77
2023-05-09T01:14:13.779Z,64.78
2023-05-09T01:16:48.830Z,64.97
2023-05-09T01:19:33.601Z,65.02
2023-05-09T01:22:04.909Z,64.93
2023-05-09T01:24:55.233Z,65.19
2023-05-09T01:27:34.158Z,65.32
2023-05-09T01:30:07.034Z,65.24
2023-05-09T01:32:39.243Z,65.09
2023-05-09T01:35:12.619Z,65.21
2023-05-09T01:37:44.478Z,65.45
2023-05-09T01:40:16.873Z,65.38
2023-05-09T01:42:48.663Z,65.71
2023-05-09T01:45:19.630Z,65.92
2023-05-09T01:47:59.687Z,66.36
2023-05-09T01:50:30.346Z,66.46
2023-05-09T01:53:01.540Z,66.45
2023-05-09T01:55:35.310Z,66.98
2023-05-09T01:58:11.955Z,67.36
2023-05-09T02:00:42.075Z,67.73
2023-05-09T02:03:10.762Z,67.73
2023-05-09T02:05:40.785Z,67.83
2023-05-09T02:08:10.661Z,67.67
2023-05-09T02:10:39.204Z,67.36
2023-05-09T02:13:07.686Z,67.32
2023-05-09T02:15:36.175Z,67.35
2023-05-09T02:18:14.001Z,67.26
2023-05-09T02:20:42.379Z,67.52
2023-05-09T02:23:10.800Z,67.58
2023-05-09T02:25:40.658Z,67.66
2023-05-09T02:28:10.323Z,67.97
2023-05-09T02:30:43.198Z,67.96
2023-05-09T02:33:15.039Z,67.58
2023-05-09T02:35:45.708Z,67.46
2023-05-09T02:38:14.710Z,67.65
2023-05-09T02:40:44.595Z,67.76
2023-05-09T02:43:13.172Z,67.79
2023-05-09T02:45:41.551Z,67.66
2023-05-09T02:48:10.255Z,67.68
2023-05-09T02:50:42.935Z,67.67
2023-05-09T02:53:11.401Z,67.41
2023-05-09T02:55:39.765Z,67.38
2023-05-09T02:58:14.381Z,67.56
2023-05-09T03:00:43.695Z,67.55
2023-05-09T03:03:12.389Z,67.30
2023-05-09T03:05:42.368Z,67.15
2023-05-09T03:08:10.726Z,66.99
2023-05-09T03:10:39.075Z,67.00
2023-05-09T03:13:07.480Z,66.85
2023-05-09T03:15:35.852Z,66.84
2023-05-09T03:18:04.319Z,67.00
2023-05-09T03:20:32.755Z,67.20
2023-05-09T03:23:10.108Z,67.27
2023-05-09T03:25:38.448Z,67.17
2023-05-09T03:28:06.790Z,66.93
2023-05-09T03:30:35.392Z,66.94
2023-05-09T03:33:04.917Z,67.02
2023-05-09T03:35:33.520Z,67.17
2023-05-09T03:38:01.857Z,67.42
2023-05-09T03:40:31.560Z,67.69
2023-05-09T03:42:59.970Z,67.72
2023-05-09T03:45:28.350Z,68.29
2023-05-09T03:47:56.768Z,68.53
2023-05-09T03:50:25.520Z,68.33
2023-05-09T03:52:55.851Z,68.46
2023-05-09T03:55:24.791Z,68.30
2023-05-09T03:57:54.754Z,68.14
2023-05-09T04:00:23.699Z,68.14
2023-05-09T04:02:54.652Z,68.31
2023-05-09T04:05:23.147Z,68.12
2023-05-09T04:07:51.536Z,68.05
2023-05-09T04:10:20.120Z,68.13
2023-05-09T04:12:48.560Z,67.93
2023-05-09T04:15:18.981Z,67.90
2023-05-09T04:17:49.869Z,68.00
2023-05-09T04:20:18.249Z,68.29
2023-05-09T04:22:47.289Z,68.51
2023-05-09T04:25:17.068Z,68.60
2023-05-09T04:27:45.694Z,68.37
2023-05-09T04:30:14.760Z,68.32
2023-05-09T04:32:45.968Z,68.66
2023-05-09T04:35:16.059Z,68.75
2023-05-09T04:37:48.068Z,68.71
2023-05-09T04:40:17.347Z,68.82
2023-05-09T04:42:55.079Z,68.83
2023-05-09T04:45:23.449Z,68.87
2023-05-09T04:47:55.712Z,68.90
2023-05-09T04:50:24.192Z,68.81
2023-05-09T04:52:52.680Z,68.95
2023-05-09T04:55:21.157Z,68.94
2023-05-09T04:57:54.724Z,69.00
2023-05-09T05:00:23.101Z,68.87
2023-05-09T05:02:53.796Z,68.62
2023-05-09T05:05:25.365Z,68.55
2023-05-09T05:07:59.458Z,68.40
2023-05-09T05:10:27.864Z,68.41
2023-05-09T05:12:56.265Z,68.30
2023-05-09T05:15:24.626Z,68.16
2023-05-09T05:17:56.048Z,68.01
2023-05-09T05:20:24.839Z,67.93
2023-05-09T05:22:54.644Z,67.89
2023-05-09T05:25:23.024Z,67.67
2023-05-09T05:27:51.446Z,67.70
2023-05-09T05:30:20.981Z,67.76
2023-05-09T05:32:49.471Z,67.72
2023-05-09T05:35:19.529Z,67.74
2023-05-09T05:37:49.113Z,67.76
2023-05-09T05:40:17.712Z,67.87
2023-05-09T05:42:46.692Z,68.64
2023-05-09T05:45:15.422Z,69.04
2023-05-09T05:47:43.997Z,68.99
2023-05-09T05:50:13.077Z,68.96
2023-05-09T05:52:43.117Z,68.90
2023-05-09T05:55:11.610Z,68.56
2023-05-09T05:57:40.140Z,68.42
2023-05-09T06:00:10.720Z,68.23
2023-05-09T06:02:39.228Z,68.24
2023-05-09T06:05:08.606Z,68.56
2023-05-09T06:07:37.177Z,68.68
2023-05-09T06:10:13.615Z,68.62
2023-05-09T06:12:41.987Z,68.35
2023-05-09T06:15:11.485Z,68.29
2023-05-09T06:17:46.653Z,68.21
2023-05-09T06:20:15.209Z,68.39
2023-05-09T06:22:43.614Z,68.43
2023-05-09T06:25:13.583Z,68.33
2023-05-09T06:27:44.713Z,68.31
2023-05-09T06:30:25.652Z,68.11
2023-05-09T06:32:58.164Z,68.30
2023-05-09T06:35:26.780Z,68.09
2023-05-09T06:37:56.504Z,68.08
2023-05-09T06:40:26.271Z,67.83
2023-05-09T06:42:57.153Z,68.03
2023-05-09T06:45:25.606Z,68.25
2023-05-09T06:47:57.074Z,68.12
2023-05-09T06:50:25.682Z,68.13
2023-05-09T06:52:55.791Z,68.18
2023-05-09T06:55:24.237Z,67.79
2023-05-09T06:57:53.977Z,67.98
2023-05-09T07:00:23.524Z,67.88
2023-05-09T07:02:51.971Z,67.72
2023-05-09T07:05:20.849Z,67.87
2023-05-09T07:07:49.269Z,67.89
2023-05-09T07:10:17.705Z,67.81
2023-05-09T07:12:46.087Z,68.17
2023-05-09T07:15:22.898Z,68.10
2023-05-09T07:17:57.496Z,68.02
2023-05-09T07:20:26.131Z,68.01
2023-05-09T07:23:04.278Z,68.05
2023-05-09T07:25:32.855Z,68.00
2023-05-09T07:28:01.235Z,67.52
2023-05-09T07:30:31.157Z,67.74
2023-05-09T07:32:59.788Z,67.81
2023-05-09T07:35:28.264Z,67.84
2023-05-09T07:37:57.883Z,67.76
2023-05-09T07:40:26.303Z,67.88
2023-05-09T07:42:56.804Z,68.38
2023-05-09T07:45:25.394Z,68.61
2023-05-09T07:47:57.358Z,68.43
2023-05-09T07:50:26.023Z,68.10
2023-05-09T07:52:56.020Z,68.00
2023-05-09T07:55:24.384Z,68.40
2023-05-09T07:57:52.955Z,68.17
2023-05-09T08:00:24.103Z,68.51
2023-05-09T08:02:52.768Z,68.39
2023-05-09T08:05:22.608Z,68.09
2023-05-09T08:08:01.002Z,68.32
2023-05-09T08:10:30.692Z,68.56
2023-05-09T08:12:59.074Z,68.31
2023-05-09T08:15:27.506Z,68.54
2023-05-09T08:17:58.433Z,68.62
2023-05-09T08:20:28.256Z,68.43
2023-05-09T08:22:57.700Z,68.54
2023-05-09T08:25:26.056Z,68.29
2023-05-09T08:27:54.437Z,68.02
2023-05-09T08:30:23.118Z,67.92
2023-05-09T08:32:51.524Z,67.65
2023-05-09T08:35:20.212Z,67.50
2023-05-09T08:37:49.958Z,67.23
2023-05-09T08:40:18.487Z,67.28
2023-05-09T08:42:49.446Z,67.43
2023-05-09T08:45:21.664Z,67.45
2023-05-09T08:47:50.775Z,67.44
2023-05-09T08:50:19.331Z,67.43
2023-05-09T08:52:59.451Z,67.35
2023-05-09T08:55:28.082Z,67.07
2023-05-09T08:57:57.563Z,66.79
2023-05-09T09:00:27.522Z,66.59
2023-05-09T09:02:58.187Z,66.44
2023-05-09T09:05:40.723Z,66.00
2023-05-09T09:08:12.353Z,65.45
2023-05-09T09:10:43.456Z,65.13
2023-05-09T09:13:13.708Z,64.96
2023-05-09T09:15:44.632Z,65.18
2023-05-09T09:18:17.329Z,64.91
2023-05-09T09:20:49.036Z,64.92
2023-05-09T09:23:21.044Z,64.64
2023-05-09T09:25:49.782Z,64.47
2023-05-09T09:28:18.742Z,64.39
2023-05-09T09:30:48.999Z,64.16
2023-05-09T09:33:21.640Z,63.76
2023-05-09T09:35:51.178Z,63.89
2023-05-09T09:38:21.451Z,63.67
2023-05-09T09:40:53.783Z,63.54
2023-05-09T09:43:22.225Z,63.38
2023-05-09T09:45:51.558Z,63.11
2023-05-09T09:48:20.094Z,62.92
2023-05-09T09:50:49.395Z,63.17
2023-05-09T09:53:23.406Z,63.25
2023-05-09T09:55:53.280Z,63.44
2023-05-09T09:58:24.758Z,63.41
2023-05-09T10:01:07.238Z,63.37
2023-05-09T10:03:39.563Z,63.37
2023-05-09T10:06:11.338Z,63.33
2023-05-09T10:08:41.522Z,63.35
2023-05-09T10:11:10.573Z,62.76
2023-05-09T10:13:39.359Z,62.66
2023-05-09T10:16:10.214Z,62.46
2023-05-09T10:18:40.627Z,62.13
2023-05-09T10:21:10.756Z,61.56
2023-05-09T10:23:44.188Z,60.62
2023-05-09T10:26:18.155Z,60.08
2023-05-09T10:28:49.786Z,59.79
2023-05-09T10:31:26.543Z,59.28
2023-05-09T10:33:56.506Z,59.29
2023-05-09T10:36:25.063Z,59.18
2023-05-09T10:38:56.569Z,59.51
2023-05-09T10:41:25.688Z,58.99
2023-05-09T10:43:59.242Z,58.63
2023-05-09T10:46:28.297Z,58.38
2023-05-09T10:48:58.394Z,58.18
2023-05-09T10:51:27.718Z,57.77
2023-05-09T10:53:59.407Z,57.12
2023-05-09T10:56:31.821Z,56.26
2023-05-09T10:59:03.175Z,55.65
2023-05-09T11:01:37.543Z,55.00
2023-05-09T11:04:11.493Z,54.79
2023-05-09T11:06:46.501Z,54.75
2023-05-09T11:09:29.539Z,54.00
2023-05-09T11:11:59.587Z,53.58
2023-05-09T11:14:32.385Z,53.46
2023-05-09T11:17:01.969Z,53.22
2023-05-09T11:19:38.444Z,52.67
2023-05-09T11:22:14.619Z,52.48
2023-05-09T11:24:48.138Z,52.18
2023-05-09T11:27:17.944Z,51.89
2023-05-09T11:29:51.031Z,51.36
2023-05-09T11:32:20.229Z,51.43
2023-05-09T11:34:50.828Z,51.24
2023-05-09T11:37:19.318Z,51.01
2023-05-09T11:39:59.494Z,50.63
2023-05-09T11:42:29.790Z,50.86
2023-05-09T11:44:59.928Z,50.34
2023-05-09T11:47:30.841Z,50.43
2023-05-09T11:50:00.823Z,50.09
2023-05-09T11:52:33.524Z,49.51
2023-05-09T11:55:03.538Z,49.08
2023-05-09T11:57:33.861Z,49.22
2023-05-09T12:00:04.600Z,49.00
2023-05-09T12:02:34.944Z,49.38
2023-05-09T12:05:11.065Z,49.32
2023-05-09T12:07:40.372Z,49.28
2023-05-09T12:10:12.760Z,49.33
2023-05-09T12:12:44.692Z,48.54
2023-05-09T12:15:14.775Z,48.32
2023-05-09T12:17:44.599Z,48.05
2023-05-09T12:20:14.352Z,47.96
2023-05-09T12:22:44.354Z,47.87
2023-05-09T12:25:14.351Z,47.59
2023-05-09T12:27:42.999Z,47.56
2023-05-09T12:30:14.146Z,47.15
2023-05-09T12:32:43.607Z,47.34
2023-05-09T12:35:12.117Z,47.46
2023-05-09T12:37:40.491Z,46.96
2023-05-09T12:40:12.521Z,46.85
2023-05-09T12:42:46.356Z,47.13
2023-05-09T12:45:15.792Z,47.05
2023-05-09T12:47:45.533Z,47.08
2023-05-09T12:50:14.210Z,46.58
2023-05-09T12:53:02.088Z,46.06
2023-05-09T12:55:32.953Z,45.89
2023-05-09T12:58:04.503Z,45.73
2023-05-09T13:00:44.384Z,45.21
2023-05-09T13:03:25.088Z,45.12
2023-05-09T13:05:57.945Z,44.94
2023-05-09T13:08:26.657Z,44.58
2023-05-09T13:11:03.872Z,44.66
2023-05-09T13:13:34.197Z,44.59
2023-05-09T13:16:04.813Z,44.36
2023-05-09T13:18:33.248Z,44.29
2023-05-09T13:21:01.673Z,44.15
2023-05-09T13:23:30.058Z,43.79
2023-05-09T13:25:58.365Z,43.45
2023-05-09T13:28:27.117Z,42.99
2023-05-09T13:30:56.914Z,43.08
2023-05-09T13:33:26.583Z,43.30
2023-05-09T13:35:55.425Z,43.33
2023-05-09T13:38:23.810Z,43.01
2023-05-09T13:40:52.483Z,42.89
2023-05-09T13:43:20.842Z,42.52
2023-05-09T13:45:51.909Z,42.34
2023-05-09T13:48:21.767Z,42.51
2023-05-09T13:50:50.398Z,42.40
2023-05-09T13:53:18.804Z,42.48
2023-05-09T13:55:47.408Z,42.15
2023-05-09T13:58:15.750Z,41.99
2023-05-09T14:00:51.718Z,41.97
2023-05-09T14:03:21.549Z,41.50
2023-05-09T14:05:49.913Z,41.58
2023-05-09T14:08:21.342Z,41.56
2023-05-09T14:10:56.830Z,41.36
2023-05-09T14:13:25.544Z,41.72
2023-05-09T14:15:54.067Z,41.27
2023-05-09T14:18:23.852Z,41.04
2023-05-09T14:20:52.392Z,41.18
2023-05-09T14:23:21.147Z,41.39
2023-05-09T14:25:49.524Z,41.50
2023-05-09T14:28:17.896Z,41.24
2023-05-09T14:30:46.289Z,41.33
2023-05-09T14:33:14.755Z,41.12
2023-05-09T14:35:44.536Z,41.04
2023-05-09T14:38:15.044Z,41.15
2023-05-09T14:40:43.404Z,41.01
2023-05-09T14:43:12.809Z,40.89
2023-05-09T14:45:41.396Z,40.91
2023-05-09T14:48:09.919Z,40.72
2023-05-09T14:50:38.279Z,40.69
2023-05-09T14:53:08.022Z,40.45
2023-05-09T14:55:36.415Z,40.42
2023-05-09T14:58:04.950Z,40.30
2023-05-09T15:00:34.165Z,40.18
2023-05-09T15:03:03.260Z,40.51
2023-05-09T15:05:32.015Z,40.67
2023-05-09T15:08:00.376Z,40.43
2023-05-09T15:10:30.165Z,40.44
2023-05-09T15:12:58.627Z,40.24
2023-05-09T15:15:28.277Z,40.19
2023-05-09T15:17:56.671Z,40.06
2023-05-09T15:20:25.071Z,40.07
2023-05-09T15:22:53.548Z,39.69
2023-05-09T15:25:23.166Z,40.02
2023-05-09T15:27:53.085Z,39.69
2023-05-09T15:30:21.507Z,39.91
2023-05-09T15:32:49.950Z,39.94
2023-05-09T15:35:19.154Z,39.88
2023-05-09T15:37:47.584Z,39.80
2023-05-09T15:40:16.218Z,39.87
2023-05-09T15:42:49.291Z,39.72
2023-05-09T15:45:19.158Z,39.89
2023-05-09T15:47:47.588Z,39.76
2023-05-09T15:50:16.324Z,39.64
2023-05-09T15:52:45.644Z,39.71
2023-05-09T15:55:14.052Z,39.67
2023-05-09T15:57:42.504Z,39.65
2023-05-09T16:00:12.361Z,39.55
2023-05-09T16:02:44.191Z,39.74
2023-05-09T16:05:16.844Z,39.52
2023-05-09T16:07:47.299Z,39.69
2023-05-09T16:10:15.871Z,39.60
2023-05-09T16:12:45.069Z,39.60
2023-05-09T16:15:13.519Z,39.26
2023-05-09T16:17:44.595Z,39.42
2023-05-09T16:20:14.691Z,39.12
2023-05-09T16:22:43.845Z,39.56
2023-05-09T16:25:22.236Z,39.66
2023-05-09T16:27:50.624Z,39.80
2023-05-09T16:30:19.058Z,39.75
2023-05-09T16:32:48.839Z,39.60
2023-05-09T16:35:17.389Z,39.52
2023-05-09T16:37:46.067Z,39.73
2023-05-09T16:40:15.503Z,39.89
2023-05-09T16:42:44.303Z,39.93
2023-05-09T16:45:12.935Z,39.60
2023-05-09T16:47:41.337Z,39.81
2023-05-09T16:50:11.897Z,40.00
2023-05-09T16:52:40.496Z,39.64
2023-05-09T16:55:09.693Z,39.73
2023-05-09T16:57:38.134Z,39.97
2023-05-09T17:00:09.750Z,40.25
2023-05-09T17:02:38.236Z,40.40
2023-05-09T17:05:07.505Z,40.59
2023-05-09T17:07:37.264Z,40.49
2023-05-09T17:10:06.228Z,40.70
2023-05-09T17:12:35.221Z,40.66
2023-05-09T17:15:05.501Z,40.49
2023-05-09T17:17:34.045Z,40.68
2023-05-09T17:20:04.849Z,40.66
2023-05-09T17:22:34.775Z,40.57
2023-05-09T17:25:07.662Z,40.71
2023-05-09T17:27:36.116Z,40.82
2023-05-09T17:30:06.780Z,40.99
2023-05-09T17:32:35.638Z,41.15
2023-05-09T17:35:06.081Z,41.21
2023-05-09T17:37:34.495Z,41.44
2023-05-09T17:40:04.002Z,41.64
2023-05-09T17:42:34.815Z,41.86
2023-05-09T17:45:04.059Z,41.76
2023-05-09T17:47:32.897Z,42.01
2023-05-09T17:50:01.284Z,42.13
2023-05-09T17:52:29.753Z,42.30
2023-05-09T17:54:58.203Z,42.37
2023-05-09T17:57:27.430Z,42.55
2023-05-09T17:59:57.228Z,42.68
2023-05-09T18:02:25.633Z,42.74
2023-05-09T18:04:54.460Z,42.92
2023-05-09T18:07:22.957Z,43.03
2023-05-09T18:09:51.351Z,43.27
2023-05-09T18:12:19.773Z,43.34
2023-05-09T18:14:49.252Z,43.51
2023-05-09T18:17:19.009Z,43.59
2023-05-09T18:19:47.401Z,43.86
2023-05-09T18:22:18.668Z,43.89
2023-05-09T18:24:47.200Z,44.15
2023-05-09T18:27:15.671Z,44.28
2023-05-09T18:29:46.850Z,44.53
2023-05-09T18:32:15.324Z,44.46
2023-05-09T18:34:45.158Z,44.62
2023-05-09T18:37:13.587Z,44.91
2023-05-09T18:39:42.135Z,44.88
2023-05-09T18:42:10.915Z,45.08
2023-05-09T18:44:39.382Z,45.03
2023-05-09T18:47:07.890Z,45.32
2023-05-09T18:49:36.353Z,45.40
2023-05-09T18:52:09.411Z,45.53
2023-05-09T18:54:41.193Z,45.63
2023-05-09T18:57:09.938Z,45.70
2023-05-09T18:59:38.372Z,46.00
2023-05-09T19:02:06.748Z,46.21
2023-05-09T19:04:35.386Z,46.22
2023-05-09T19:07:07.793Z,46.41
2023-05-09T19:09:37.686Z,46.55
2023-05-09T19:12:09.595Z,46.67
2023-05-09T19:14:38.863Z,46.86
2023-05-09T19:17:07.792Z,47.05
2023-05-09T19:19:36.385Z,47.06
2023-05-09T19:22:06.830Z,47.22
2023-05-09T19:24:35.370Z,47.21
2023-05-09T19:27:07.884Z,47.36
2023-05-09T19:29:36.293Z,47.42
2023-05-09T19:32:07.715Z,47.66
2023-05-09T19:34:36.616Z,47.72
2023-05-09T19:37:07.599Z,47.82
2023-05-09T19:39:36.022Z,47.91
2023-05-09T19:42:08.038Z,48.08
2023-05-09T19:44:36.449Z,48.23
2023-05-09T19:47:09.045Z,48.38
2023-05-09T19:49:37.415Z,48.55
2023-05-09T19:52:15.816Z,48.68
2023-05-09T19:54:44.269Z,48.88
2023-05-09T19:57:14.064Z,49.08
2023-05-09T19:59:42.556Z,49.21
2023-05-09T20:02:10.983Z,49.24
2023-05-09T20:04:39.494Z,49.30
2023-05-09T20:07:08.255Z,49.51
2023-05-09T20:09:36.635Z,49.60
2023-05-09T20:12:06.051Z,49.89
2023-05-09T20:14:35.981Z,50.14
2023-05-09T20:17:06.470Z,50.13
2023-05-09T20:19:35.144Z,50.14
2023-05-09T20:22:03.818Z,50.35
2023-05-09T20:24:32.539Z,50.41
2023-05-09T20:27:02.510Z,50.69
2023-05-09T20:29:31.233Z,50.44
2023-05-09T20:32:01.256Z,50.73
2023-05-09T20:34:30.048Z,50.94
2023-05-09T20:36:58.669Z,51.01
2023-05-09T20:39:31.365Z,51.16
2023-05-09T20:42:02.448Z,51.20
2023-05-09T20:44:31.105Z,51.26
2023-05-09T20:47:00.831Z,51.42
2023-05-09T20:49:29.441Z,51.59
2023-05-09T20:51:58.118Z,51.62
2023-05-09T20:54:26.541Z,51.70
2023-05-09T20:56:55.154Z,51.87
2023-05-09T20:59:23.646Z,52.25
2023-05-09T21:01:52.668Z,52.17
2023-05-09T21:04:23.153Z,52.21
2023-05-09T21:06:51.611Z,52.26
2023-05-09T21:09:19.977Z,52.73
2023-05-09T21:11:48.403Z,52.87
2023-05-09T21:14:16.746Z,53.04
2023-05-09T21:16:46.895Z,53.29
2023-05-09T21:19:15.446Z,53.69
2023-05-09T21:21:45.228Z,54.03
2023-05-09T21:24:13.593Z,54.48
2023-05-09T21:26:42.123Z,54.87
2023-05-09T21:29:15.384Z,55.11
2023-05-09T21:31:43.901Z,55.37
2023-05-09T21:34:12.397Z,55.34
2023-05-09T21:36:41.702Z,55.28
2023-05-09T21:39:11.763Z,55.34
2023-05-09T21:41:42.716Z,55.46
2023-05-09T21:44:12.319Z,55.53
2023-05-09T21:46:41.208Z,55.80
2023-05-09T21:49:09.727Z,56.36
2023-05-09T21:51:38.267Z,56.77
2023-05-09T21:54:08.072Z,56.93
2023-05-09T21:56:37.826Z,56.79
2023-05-09T21:59:06.734Z,56.99
2023-05-09T22:01:35.110Z,57.35
2023-05-09T22:04:03.684Z,57.99
2023-05-09T22:06:32.503Z,58.53
2023-05-09T22:09:01.123Z,59.16
2023-05-09T22:11:29.611Z,59.60
2023-05-09T22:13:59.506Z,60.49
2023-05-09T22:16:28.543Z,61.11
2023-05-09T22:18:57.133Z,61.28
2023-05-09T22:21:25.498Z,61.68
2023-05-09T22:23:54.047Z,62.01
2023-05-09T22:26:22.513Z,62.76
2023-05-09T22:28:51.280Z,63.10
2023-05-09T22:31:21.869Z,63.97
2023-05-09T22:33:50.514Z,65.10
2023-05-09T22:36:19.031Z,65.80
2023-05-09T22:38:47.443Z,66.29
2023-05-09T22:41:15.850Z,66.93
2023-05-09T22:43:46.962Z,67.30
2023-05-09T22:46:15.616Z,67.88
2023-05-09T22:48:45.418Z,68.08
2023-05-09T22:51:14.970Z,68.52
2023-05-09T22:53:43.432Z,68.56
2023-05-09T22:56:12.699Z,68.52
2023-05-09T22:58:41.110Z,68.45
2023-05-09T23:01:09.529Z,68.35
2023-05-09T23:03:38.187Z,68.58
2023-05-09T23:06:10.756Z,68.83
2023-05-09T23:08:39.118Z,68.83
2023-05-09T23:11:08.403Z,69.10
2023-05-09T23:13:37.171Z,69.41
2023-05-09T23:16:06.000Z,69.24
2023-05-09T23:18:41.485Z,69.41
2023-05-09T23:21:11.609Z,69.65
2023-05-09T23:23:39.993Z,69.81
2023-05-09T23:26:10.596Z,69.90
2023-05-09T23:28:38.997Z,69.82
2023-05-09T23:31:08.514Z,70.10
2023-05-09T23:33:36.906Z,69.99
2023-05-09T23:36:05.641Z,70.12
2023-05-09T23:38:35.584Z,70.51
2023-05-09T23:41:04.013Z,70.35
2023-05-09T23:43:32.641Z,70.67
2023-05-09T23:46:01.069Z,70.41
2023-05-09T23:48:29.927Z,70.66
2023-05-09T23:50:58.331Z,70.99
2023-05-09T23:53:26.739Z,71.24
2023-05-09T23:55:56.485Z,71.45
2023-05-09T23:58:24.885Z,71.54
